sensor_id;sensor_type;location;lat;lon;timestamp;temperature;humidity
2565;DHT22;1292;48.020;7.822;2023-08-31T05:47:20;16.10;99.90
2565;DHT22;1292;48.020;7.822;2023-08-31T05:49:46;16.00;99.90
2565;DHT22;1292;48.020;7.822;2023-08-31T05:52:13;16.00;99.90
2565;DHT22;1292;48.020;7.822;2023-08-31T05:54:40;16.10;99.90
2565;DHT22;1292;48.020;7.822;2023-08-31T05:57:07;16.10;99.90
2565;DHT22;1292;48.020;7.822;2023-08-31T05:59:34;16.10;99.90
2565;DHT22;1292;48.020;7.822;2023-08-31T06:02:00;16.10;99.90
2565;DHT22;1292;48.020;7.822;2023-08-31T06:04:31;16.20;99.90
2565;DHT22;1292;48.020;7.822;2023-08-31T06:06:58;16.20;99.90
2565;DHT22;1292;48.020;7.822;2023-08-31T06:09:25;16.20;99.90
2565;DHT22;1292;48.020;7.822;2023-08-31T06:11:52;16.20;99.90
2565;DHT22;1292;48.020;7.822;2023-08-31T06:14:19;16.20;99.90
2565;DHT22;1292;48.020;7.822;2023-08-31T06:16:46;16.20;99.90
2565;DHT22;1292;48.020;7.822;2023-08-31T06:19:13;16.20;99.90
2565;DHT22;1292;48.020;7.822;2023-08-31T06:21:42;16.20;99.90
2565;DHT22;1292;48.020;7.822;2023-08-31T06:24:09;16.30;99.90
2565;DHT22;1292;48.020;7.822;2023-08-31T06:26:38;16.30;99.90
2565;DHT22;1292;48.020;7.822;2023-08-31T06:29:05;16.40;99.90
2565;DHT22;1292;48.020;7.822;2023-08-31T06:31:34;16.40;99.90
2565;DHT22;1292;48.020;7.822;2023-08-31T06:34:00;16.40;99.90
2565;DHT22;1292;48.020;7.822;2023-08-31T06:36:27;16.40;99.90
2565;DHT22;1292;48.020;7.822;2023-08-31T06:38:55;16.40;99.90
2565;DHT22;1292;48.020;7.822;2023-08-31T06:41:22;16.40;99.90
2565;DHT22;1292;48.020;7.822;2023-08-31T06:43:49;16.50;99.90
2565;DHT22;1292;48.020;7.822;2023-08-31T06:46:16;16.40;99.90
2565;DHT22;1292;48.020;7.822;2023-08-31T06:48:42;16.40;99.90
2565;DHT22;1292;48.020;7.822;2023-08-31T06:51:09;16.40;99.90
2565;DHT22;1292;48.020;7.822;2023-08-31T06:53:36;16.50;99.90
2565;DHT22;1292;48.020;7.822;2023-08-31T06:56:05;16.50;99.90
2565;DHT22;1292;48.020;7.822;2023-08-31T06:58:32;16.50;99.90
2565;DHT22;1292;48.020;7.822;2023-08-31T07:00:58;16.60;99.90
2565;DHT22;1292;48.020;7.822;2023-08-31T07:03:25;16.60;99.90
2565;DHT22;1292;48.020;7.822;2023-08-31T07:05:52;16.70;99.90
2565;DHT22;1292;48.020;7.822;2023-08-31T07:08:19;16.60;99.90
2565;DHT22;1292;48.020;7.822;2023-08-31T07:10:46;16.50;99.90
2565;DHT22;1292;48.020;7.822;2023-08-31T07:13:15;16.60;99.90
2565;DHT22;1292;48.020;7.822;2023-08-31T07:15:42;16.60;99.90
2565;DHT22;1292;48.020;7.822;2023-08-31T07:18:09;16.60;99.90
2565;DHT22;1292;48.020;7.822;2023-08-31T07:20:36;16.50;99.90
2565;DHT22;1292;48.020;7.822;2023-08-31T07:23:03;16.50;99.90
2565;DHT22;1292;48.020;7.822;2023-08-31T07:25:30;16.60;99.90
2565;DHT22;1292;48.020;7.822;2023-08-31T07:27:57;16.70;99.90
2565;DHT22;1292;48.020;7.822;2023-08-31T07:30:25;16.70;99.90
2565;DHT22;1292;48.020;7.822;2023-08-31T07:32:51;16.70;99.90
2565;DHT22;1292;48.020;7.822;2023-08-31T07:35:18;16.70;99.90
2565;DHT22;1292;48.020;7.822;2023-08-31T07:37:45;16.80;99.90
2565;DHT22;1292;48.020;7.822;2023-08-31T07:40:12;17.00;99.90
2565;DHT22;1292;48.020;7.822;2023-08-31T07:42:39;16.90;99.90
2565;DHT22;1292;48.020;7.822;2023-08-31T07:45:07;17.00;99.90
2565;DHT22;1292;48.020;7.822;2023-08-31T07:47:35;17.10;99.90
2565;DHT22;1292;48.020;7.822;2023-08-31T07:50:02;17.20;99.90
2565;DHT22;1292;48.020;7.822;2023-08-31T07:52:29;17.30;99.90
2565;DHT22;1292;48.020;7.822;2023-08-31T07:54:55;17.40;99.90
2565;DHT22;1292;48.020;7.822;2023-08-31T07:57:22;17.50;99.90
2565;DHT22;1292;48.020;7.822;2023-08-31T07:59:49;17.60;99.90
2565;DHT22;1292;48.020;7.822;2023-08-31T08:02:16;17.70;99.90
2565;DHT22;1292;48.020;7.822;2023-08-31T08:04:45;17.60;99.90
2565;DHT22;1292;48.020;7.822;2023-08-31T08:07:12;17.70;99.90
2565;DHT22;1292;48.020;7.822;2023-08-31T08:09:39;17.70;99.90
2565;DHT22;1292;48.020;7.822;2023-08-31T08:12:07;17.60;99.90
2565;DHT22;1292;48.020;7.822;2023-08-31T08:14:34;17.70;99.90
2565;DHT22;1292;48.020;7.822;2023-08-31T08:17:00;17.70;99.90
2565;DHT22;1292;48.020;7.822;2023-08-31T08:19:28;17.70;99.90
2565;DHT22;1292;48.020;7.822;2023-08-31T08:21:56;17.80;99.90
2565;DHT22;1292;48.020;7.822;2023-08-31T08:24:23;18.00;99.90
2565;DHT22;1292;48.020;7.822;2023-08-31T08:26:50;18.10;99.90
2565;DHT22;1292;48.020;7.822;2023-08-31T08:29:17;18.20;99.90
2565;DHT22;1292;48.020;7.822;2023-08-31T08:31:44;18.20;99.90
2565;DHT22;1292;48.020;7.822;2023-08-31T08:34:10;18.30;99.90
2565;DHT22;1292;48.020;7.822;2023-08-31T08:36:37;18.30;99.90
2565;DHT22;1292;48.020;7.822;2023-08-31T08:39:05;18.40;99.90
2565;DHT22;1292;48.020;7.822;2023-08-31T08:41:33;18.40;99.90
2565;DHT22;1292;48.020;7.822;2023-08-31T08:44:02;18.40;99.90
2565;DHT22;1292;48.020;7.822;2023-08-31T08:46:31;18.40;99.90
2565;DHT22;1292;48.020;7.822;2023-08-31T08:48:59;18.50;99.90
2565;DHT22;1292;48.020;7.822;2023-08-31T08:51:27;18.60;99.90
2565;DHT22;1292;48.020;7.822;2023-08-31T08:53:54;18.60;99.90
2565;DHT22;1292;48.020;7.822;2023-08-31T08:56:22;18.60;99.90
2565;DHT22;1292;48.020;7.822;2023-08-31T08:58:49;18.70;99.90
2565;DHT22;1292;48.020;7.822;2023-08-31T09:01:16;18.90;99.90
2565;DHT22;1292;48.020;7.822;2023-08-31T09:03:43;19.00;99.90
2565;DHT22;1292;48.020;7.822;2023-08-31T09:06:11;19.10;99.90
2565;DHT22;1292;48.020;7.822;2023-08-31T09:08:38;19.20;99.90
2565;DHT22;1292;48.020;7.822;2023-08-31T09:11:07;19.30;99.90
2565;DHT22;1292;48.020;7.822;2023-08-31T09:13:36;19.40;99.90
2565;DHT22;1292;48.020;7.822;2023-08-31T09:16:03;19.50;99.90
2565;DHT22;1292;48.020;7.822;2023-08-31T09:18:31;19.50;99.90
2565;DHT22;1292;48.020;7.822;2023-08-31T09:21:00;19.50;99.90
2565;DHT22;1292;48.020;7.822;2023-08-31T09:23:27;19.60;99.90
2565;DHT22;1292;48.020;7.822;2023-08-31T09:25:55;19.70;99.90
2565;DHT22;1292;48.020;7.822;2023-08-31T09:28:23;19.70;99.90
2565;DHT22;1292;48.020;7.822;2023-08-31T09:31:04;19.70;99.90
2565;DHT22;1292;48.020;7.822;2023-08-31T09:33:31;19.70;99.90
2565;DHT22;1292;48.020;7.822;2023-08-31T09:35:59;19.70;99.90
2565;DHT22;1292;48.020;7.822;2023-08-31T09:38:27;19.60;99.90
2565;DHT22;1292;48.020;7.822;2023-08-31T09:41:03;19.70;99.90
2565;DHT22;1292;48.020;7.822;2023-08-31T09:43:31;19.70;99.90
2565;DHT22;1292;48.020;7.822;2023-08-31T09:45:59;19.70;99.90
2565;DHT22;1292;48.020;7.822;2023-08-31T09:48:26;19.60;99.90
2565;DHT22;1292;48.020;7.822;2023-08-31T09:50:55;19.50;99.90
2565;DHT22;1292;48.020;7.822;2023-08-31T09:53:24;19.50;99.90
2565;DHT22;1292;48.020;7.822;2023-08-31T09:55:51;19.60;99.90
2565;DHT22;1292;48.020;7.822;2023-08-31T09:58:20;19.70;99.90
2565;DHT22;1292;48.020;7.822;2023-08-31T10:00:49;19.80;99.90
2565;DHT22;1292;48.020;7.822;2023-08-31T10:03:17;19.90;99.90
2565;DHT22;1292;48.020;7.822;2023-08-31T10:05:46;20.00;99.90
2565;DHT22;1292;48.020;7.822;2023-08-31T10:08:14;20.00;99.90
2565;DHT22;1292;48.020;7.822;2023-08-31T10:10:41;20.10;99.90
2565;DHT22;1292;48.020;7.822;2023-08-31T10:13:08;20.20;99.90
2565;DHT22;1292;48.020;7.822;2023-08-31T10:15:35;20.30;99.90
2565;DHT22;1292;48.020;7.822;2023-08-31T10:18:04;20.20;99.90
2565;DHT22;1292;48.020;7.822;2023-08-31T10:20:33;20.20;99.90
2565;DHT22;1292;48.020;7.822;2023-08-31T10:23:02;20.30;99.90
2565;DHT22;1292;48.020;7.822;2023-08-31T10:25:59;20.30;99.90
2565;DHT22;1292;48.020;7.822;2023-08-31T10:28:27;20.30;99.90
2565;DHT22;1292;48.020;7.822;2023-08-31T10:31:01;20.30;99.90
2565;DHT22;1292;48.020;7.822;2023-08-31T10:33:31;20.30;99.90
2565;DHT22;1292;48.020;7.822;2023-08-31T10:35:59;20.40;99.90
2565;DHT22;1292;48.020;7.822;2023-08-31T10:38:28;20.60;99.90
2565;DHT22;1292;48.020;7.822;2023-08-31T10:41:18;20.60;99.90
2565;DHT22;1292;48.020;7.822;2023-08-31T10:43:49;20.80;99.90
2565;DHT22;1292;48.020;7.822;2023-08-31T10:46:30;20.70;99.90
2565;DHT22;1292;48.020;7.822;2023-08-31T10:48:58;20.80;99.90
2565;DHT22;1292;48.020;7.822;2023-08-31T10:51:28;20.70;99.90
2565;DHT22;1292;48.020;7.822;2023-08-31T10:54:08;20.80;99.90
2565;DHT22;1292;48.020;7.822;2023-08-31T10:56:55;20.80;99.90
2565;DHT22;1292;48.020;7.822;2023-08-31T10:59:45;20.70;99.90
2565;DHT22;1292;48.020;7.822;2023-08-31T11:02:27;20.70;99.90
2565;DHT22;1292;48.020;7.822;2023-08-31T11:04:59;20.70;99.90
2565;DHT22;1292;48.020;7.822;2023-08-31T11:07:27;20.70;99.90
2565;DHT22;1292;48.020;7.822;2023-08-31T11:10:10;20.70;99.90
2565;DHT22;1292;48.020;7.822;2023-08-31T11:12:37;20.60;99.90
2565;DHT22;1292;48.020;7.822;2023-08-31T11:15:05;20.60;99.90
2565;DHT22;1292;48.020;7.822;2023-08-31T11:17:32;20.60;99.90
2565;DHT22;1292;48.020;7.822;2023-08-31T11:20:00;20.60;99.90
2565;DHT22;1292;48.020;7.822;2023-08-31T11:22:32;20.70;99.90
2565;DHT22;1292;48.020;7.822;2023-08-31T11:24:59;20.60;99.90
2565;DHT22;1292;48.020;7.822;2023-08-31T11:27:26;20.60;99.90
2565;DHT22;1292;48.020;7.822;2023-08-31T11:29:53;20.70;99.90
2565;DHT22;1292;48.020;7.822;2023-08-31T11:32:19;20.80;99.90
2565;DHT22;1292;48.020;7.822;2023-08-31T11:34:45;21.00;99.90
2565;DHT22;1292;48.020;7.822;2023-08-31T11:37:13;21.10;99.90
2565;DHT22;1292;48.020;7.822;2023-08-31T11:39:49;21.20;99.90
2565;DHT22;1292;48.020;7.822;2023-08-31T11:42:16;21.30;99.90
2565;DHT22;1292;48.020;7.822;2023-08-31T11:44:44;21.40;99.90
2565;DHT22;1292;48.020;7.822;2023-08-31T11:47:12;21.40;99.90
2565;DHT22;1292;48.020;7.822;2023-08-31T11:49:39;21.30;99.90
2565;DHT22;1292;48.020;7.822;2023-08-31T11:52:06;21.30;99.90
2565;DHT22;1292;48.020;7.822;2023-08-31T11:54:37;21.30;99.90
2565;DHT22;1292;48.020;7.822;2023-08-31T11:57:06;21.20;99.90
2565;DHT22;1292;48.020;7.822;2023-08-31T11:59:35;21.30;99.90
2565;DHT22;1292;48.020;7.822;2023-08-31T12:02:05;21.40;99.90
2565;DHT22;1292;48.020;7.822;2023-08-31T12:04:32;21.50;99.90
2565;DHT22;1292;48.020;7.822;2023-08-31T12:07:01;21.60;99.90
2565;DHT22;1292;48.020;7.822;2023-08-31T12:09:30;21.60;99.90
2565;DHT22;1292;48.020;7.822;2023-08-31T12:11:57;21.70;99.90
2565;DHT22;1292;48.020;7.822;2023-08-31T12:14:27;21.70;99.90
2565;DHT22;1292;48.020;7.822;2023-08-31T12:17:01;21.90;99.90
2565;DHT22;1292;48.020;7.822;2023-08-31T12:19:29;21.80;99.90
2565;DHT22;1292;48.020;7.822;2023-08-31T12:21:56;21.90;99.90
2565;DHT22;1292;48.020;7.822;2023-08-31T12:24:23;22.00;99.90
2565;DHT22;1292;48.020;7.822;2023-08-31T12:26:50;22.00;99.90
2565;DHT22;1292;48.020;7.822;2023-08-31T12:29:19;22.00;99.90
2565;DHT22;1292;48.020;7.822;2023-08-31T12:31:47;22.10;99.90
2565;DHT22;1292;48.020;7.822;2023-08-31T12:34:15;22.10;99.90
2565;DHT22;1292;48.020;7.822;2023-08-31T12:36:42;22.20;99.90
2565;DHT22;1292;48.020;7.822;2023-08-31T12:39:09;21.90;99.90
2565;DHT22;1292;48.020;7.822;2023-08-31T12:41:36;21.90;99.90
2565;DHT22;1292;48.020;7.822;2023-08-31T12:44:03;22.00;99.90
2565;DHT22;1292;48.020;7.822;2023-08-31T12:46:30;22.10;99.90
2565;DHT22;1292;48.020;7.822;2023-08-31T12:48:59;22.20;99.90
2565;DHT22;1292;48.020;7.822;2023-08-31T12:51:26;22.30;99.90
2565;DHT22;1292;48.020;7.822;2023-08-31T12:53:53;22.30;99.90
2565;DHT22;1292;48.020;7.822;2023-08-31T12:56:20;22.40;99.90
2565;DHT22;1292;48.020;7.822;2023-08-31T12:58:48;22.40;99.90
2565;DHT22;1292;48.020;7.822;2023-08-31T13:01:16;22.30;99.90
2565;DHT22;1292;48.020;7.822;2023-08-31T13:03:43;22.40;99.90
2565;DHT22;1292;48.020;7.822;2023-08-31T13:06:11;22.30;99.90
2565;DHT22;1292;48.020;7.822;2023-08-31T13:08:38;22.30;99.90
2565;DHT22;1292;48.020;7.822;2023-08-31T13:11:05;22.20;99.90
2565;DHT22;1292;48.020;7.822;2023-08-31T13:13:32;22.20;99.90
2565;DHT22;1292;48.020;7.822;2023-08-31T13:15:59;22.00;99.90
2565;DHT22;1292;48.020;7.822;2023-08-31T13:18:26;22.00;99.90
2565;DHT22;1292;48.020;7.822;2023-08-31T13:20:54;21.90;99.90
2565;DHT22;1292;48.020;7.822;2023-08-31T13:23:22;21.90;99.90
2565;DHT22;1292;48.020;7.822;2023-08-31T13:25:49;21.90;99.90
2565;DHT22;1292;48.020;7.822;2023-08-31T13:28:17;21.90;99.90
2565;DHT22;1292;48.020;7.822;2023-08-31T13:30:45;21.90;99.90
2565;DHT22;1292;48.020;7.822;2023-08-31T13:33:12;21.90;99.90
2565;DHT22;1292;48.020;7.822;2023-08-31T13:35:39;21.80;99.90
2565;DHT22;1292;48.020;7.822;2023-08-31T13:38:05;21.90;99.90
2565;DHT22;1292;48.020;7.822;2023-08-31T13:40:35;21.90;99.90
2565;DHT22;1292;48.020;7.822;2023-08-31T13:43:03;22.00;99.90
2565;DHT22;1292;48.020;7.822;2023-08-31T13:45:30;22.10;99.90
2565;DHT22;1292;48.020;7.822;2023-08-31T13:47:58;22.20;99.90
2565;DHT22;1292;48.020;7.822;2023-08-31T13:50:25;22.20;99.90
2565;DHT22;1292;48.020;7.822;2023-08-31T13:52:52;22.10;99.90
2565;DHT22;1292;48.020;7.822;2023-08-31T13:55:19;22.10;99.90
2565;DHT22;1292;48.020;7.822;2023-08-31T13:57:48;22.10;99.90
2565;DHT22;1292;48.020;7.822;2023-08-31T14:00:15;22.10;99.90
2565;DHT22;1292;48.020;7.822;2023-08-31T14:02:42;22.30;99.90
2565;DHT22;1292;48.020;7.822;2023-08-31T14:05:10;22.30;99.90
2565;DHT22;1292;48.020;7.822;2023-08-31T14:07:37;22.30;99.90
2565;DHT22;1292;48.020;7.822;2023-08-31T14:10:05;22.20;99.90
2565;DHT22;1292;48.020;7.822;2023-08-31T14:12:32;22.00;99.90
2565;DHT22;1292;48.020;7.822;2023-08-31T14:15:01;22.00;99.90
2565;DHT22;1292;48.020;7.822;2023-08-31T14:17:29;22.00;99.90
2565;DHT22;1292;48.020;7.822;2023-08-31T14:19:58;22.00;99.90
2565;DHT22;1292;48.020;7.822;2023-08-31T14:22:25;22.10;99.90
2565;DHT22;1292;48.020;7.822;2023-08-31T14:24:52;22.20;99.90
2565;DHT22;1292;48.020;7.822;2023-08-31T14:27:18;22.20;99.90
2565;DHT22;1292;48.020;7.822;2023-08-31T14:29:45;22.20;99.90
2565;DHT22;1292;48.020;7.822;2023-08-31T14:32:13;22.20;99.90
2565;DHT22;1292;48.020;7.822;2023-08-31T14:34:41;22.10;99.90
2565;DHT22;1292;48.020;7.822;2023-08-31T14:37:07;22.10;99.90
2565;DHT22;1292;48.020;7.822;2023-08-31T14:39:34;22.10;99.90
2565;DHT22;1292;48.020;7.822;2023-08-31T14:42:01;22.10;99.90
2565;DHT22;1292;48.020;7.822;2023-08-31T14:44:28;22.00;99.90
2565;DHT22;1292;48.020;7.822;2023-08-31T14:46:55;21.90;99.90
2565;DHT22;1292;48.020;7.822;2023-08-31T14:49:24;21.80;99.90
2565;DHT22;1292;48.020;7.822;2023-08-31T14:51:51;21.70;99.90
2565;DHT22;1292;48.020;7.822;2023-08-31T14:54:18;21.70;99.90
2565;DHT22;1292;48.020;7.822;2023-08-31T14:56:45;21.60;99.90
2565;DHT22;1292;48.020;7.822;2023-08-31T14:59:12;21.50;99.90
2565;DHT22;1292;48.020;7.822;2023-08-31T15:01:38;21.50;99.90
2565;DHT22;1292;48.020;7.822;2023-08-31T15:04:05;21.50;99.90
2565;DHT22;1292;48.020;7.822;2023-08-31T15:06:33;21.60;99.90
2565;DHT22;1292;48.020;7.822;2023-08-31T15:09:00;21.50;99.90
2565;DHT22;1292;48.020;7.822;2023-08-31T15:11:27;21.60;99.90
2565;DHT22;1292;48.020;7.822;2023-08-31T15:13:54;21.50;99.90
2565;DHT22;1292;48.020;7.822;2023-08-31T15:16:21;21.50;99.90
2565;DHT22;1292;48.020;7.822;2023-08-31T15:18:48;21.50;99.90
2565;DHT22;1292;48.020;7.822;2023-08-31T15:21:15;21.50;99.90
2565;DHT22;1292;48.020;7.822;2023-08-31T15:23:44;21.50;99.90
2565;DHT22;1292;48.020;7.822;2023-08-31T15:26:11;21.50;99.90
2565;DHT22;1292;48.020;7.822;2023-08-31T15:28:40;21.40;99.90
2565;DHT22;1292;48.020;7.822;2023-08-31T15:31:07;21.50;99.90
2565;DHT22;1292;48.020;7.822;2023-08-31T15:33:34;21.40;99.90
2565;DHT22;1292;48.020;7.822;2023-08-31T15:36:05;21.40;99.90
2565;DHT22;1292;48.020;7.822;2023-08-31T15:38:32;21.40;99.90
2565;DHT22;1292;48.020;7.822;2023-08-31T15:41:02;21.40;99.90
2565;DHT22;1292;48.020;7.822;2023-08-31T15:43:30;21.20;99.90
2565;DHT22;1292;48.020;7.822;2023-08-31T15:45:58;21.20;99.90
2565;DHT22;1292;48.020;7.822;2023-08-31T15:48:25;21.20;99.90
2565;DHT22;1292;48.020;7.822;2023-08-31T15:50:54;21.10;99.90
2565;DHT22;1292;48.020;7.822;2023-08-31T15:53:21;21.10;99.90
2565;DHT22;1292;48.020;7.822;2023-08-31T15:55:49;21.10;99.90
2565;DHT22;1292;48.020;7.822;2023-08-31T15:58:17;21.00;99.90
2565;DHT22;1292;48.020;7.822;2023-08-31T16:00:44;20.90;99.90
2565;DHT22;1292;48.020;7.822;2023-08-31T16:03:11;20.90;99.90
2565;DHT22;1292;48.020;7.822;2023-08-31T16:05:38;20.90;99.90
2565;DHT22;1292;48.020;7.822;2023-08-31T16:08:05;20.90;99.90
2565;DHT22;1292;48.020;7.822;2023-08-31T16:10:32;20.80;99.90
2565;DHT22;1292;48.020;7.822;2023-08-31T16:12:59;20.80;99.90
2565;DHT22;1292;48.020;7.822;2023-08-31T16:15:27;20.70;99.90
2565;DHT22;1292;48.020;7.822;2023-08-31T16:17:55;20.70;99.90
2565;DHT22;1292;48.020;7.822;2023-08-31T16:20:21;20.70;99.90
2565;DHT22;1292;48.020;7.822;2023-08-31T16:22:48;20.70;99.90
2565;DHT22;1292;48.020;7.822;2023-08-31T16:25:15;20.70;99.90
2565;DHT22;1292;48.020;7.822;2023-08-31T16:27:43;20.70;99.90
2565;DHT22;1292;48.020;7.822;2023-08-31T16:30:11;20.70;99.90
2565;DHT22;1292;48.020;7.822;2023-08-31T16:32:40;20.70;99.90
2565;DHT22;1292;48.020;7.822;2023-08-31T16:35:07;20.70;99.90
2565;DHT22;1292;48.020;7.822;2023-08-31T16:37:34;20.70;99.90
2565;DHT22;1292;48.020;7.822;2023-08-31T16:40:01;20.70;99.90
2565;DHT22;1292;48.020;7.822;2023-08-31T16:42:30;20.70;99.90
2565;DHT22;1292;48.020;7.822;2023-08-31T16:44:57;20.70;99.90
2565;DHT22;1292;48.020;7.822;2023-08-31T16:47:23;20.70;99.90
2565;DHT22;1292;48.020;7.822;2023-08-31T16:49:52;20.70;99.90
2565;DHT22;1292;48.020;7.822;2023-08-31T16:52:22;20.70;99.90
2565;DHT22;1292;48.020;7.822;2023-08-31T16:54:49;20.70;99.90
2565;DHT22;1292;48.020;7.822;2023-08-31T16:57:15;20.70;99.90
2565;DHT22;1292;48.020;7.822;2023-08-31T16:59:42;20.70;99.90
2565;DHT22;1292;48.020;7.822;2023-08-31T17:02:09;20.70;99.90
2565;DHT22;1292;48.020;7.822;2023-08-31T17:04:37;20.70;99.90
2565;DHT22;1292;48.020;7.822;2023-08-31T17:07:05;20.70;99.90
2565;DHT22;1292;48.020;7.822;2023-08-31T17:09:33;20.70;99.90
2565;DHT22;1292;48.020;7.822;2023-08-31T17:12:00;20.70;99.90
2565;DHT22;1292;48.020;7.822;2023-08-31T17:14:28;20.60;99.90
2565;DHT22;1292;48.020;7.822;2023-08-31T17:16:55;20.60;99.90
2565;DHT22;1292;48.020;7.822;2023-08-31T17:19:26;20.60;99.90
2565;DHT22;1292;48.020;7.822;2023-08-31T17:21:53;20.60;99.90
2565;DHT22;1292;48.020;7.822;2023-08-31T17:24:21;20.60;99.90
2565;DHT22;1292;48.020;7.822;2023-08-31T17:26:47;20.60;99.90
2565;DHT22;1292;48.020;7.822;2023-08-31T17:29:14;20.50;99.90
2565;DHT22;1292;48.020;7.822;2023-08-31T17:31:41;20.50;99.90
2565;DHT22;1292;48.020;7.822;2023-08-31T17:34:07;20.50;99.90
2565;DHT22;1292;48.020;7.822;2023-08-31T17:36:34;20.40;99.90
2565;DHT22;1292;48.020;7.822;2023-08-31T17:39:02;20.40;99.90
2565;DHT22;1292;48.020;7.822;2023-08-31T17:41:31;20.40;99.90
2565;DHT22;1292;48.020;7.822;2023-08-31T17:43:58;20.30;99.90
2565;DHT22;1292;48.020;7.822;2023-08-31T17:46:25;20.30;99.90
2565;DHT22;1292;48.020;7.822;2023-08-31T17:48:51;20.30;99.90
2565;DHT22;1292;48.020;7.822;2023-08-31T17:51:18;20.20;99.90
2565;DHT22;1292;48.020;7.822;2023-08-31T17:53:45;20.20;99.90
2565;DHT22;1292;48.020;7.822;2023-08-31T17:56:12;20.20;99.90
2565;DHT22;1292;48.020;7.822;2023-08-31T17:58:40;20.20;99.90
2565;DHT22;1292;48.020;7.822;2023-08-31T18:01:07;20.20;99.90
2565;DHT22;1292;48.020;7.822;2023-08-31T18:03:34;20.20;99.90
2565;DHT22;1292;48.020;7.822;2023-08-31T18:06:01;20.10;99.90
2565;DHT22;1292;48.020;7.822;2023-08-31T18:08:28;20.10;99.90
2565;DHT22;1292;48.020;7.822;2023-08-31T18:10:55;20.10;99.90
2565;DHT22;1292;48.020;7.822;2023-08-31T18:13:25;20.10;99.90
2565;DHT22;1292;48.020;7.822;2023-08-31T18:15:53;20.00;99.90
2565;DHT22;1292;48.020;7.822;2023-08-31T18:18:20;20.00;99.90
2565;DHT22;1292;48.020;7.822;2023-08-31T18:20:47;20.00;99.90
2565;DHT22;1292;48.020;7.822;2023-08-31T18:23:14;20.00;99.90
2565;DHT22;1292;48.020;7.822;2023-08-31T18:25:45;19.90;99.90
2565;DHT22;1292;48.020;7.822;2023-08-31T18:28:12;19.90;99.90
2565;DHT22;1292;48.020;7.822;2023-08-31T18:30:39;19.90;99.90
2565;DHT22;1292;48.020;7.822;2023-08-31T18:33:07;19.90;99.90
2565;DHT22;1292;48.020;7.822;2023-08-31T18:35:34;19.90;99.90
2565;DHT22;1292;48.020;7.822;2023-08-31T18:38:01;19.80;99.90
2565;DHT22;1292;48.020;7.822;2023-08-31T18:40:28;19.80;99.90
2565;DHT22;1292;48.020;7.822;2023-08-31T18:42:55;19.80;99.90
2565;DHT22;1292;48.020;7.822;2023-08-31T18:45:22;19.70;99.90
2565;DHT22;1292;48.020;7.822;2023-08-31T18:47:49;19.70;99.90
2565;DHT22;1292;48.020;7.822;2023-08-31T18:50:17;19.70;99.90
2565;DHT22;1292;48.020;7.822;2023-08-31T18:52:46;19.70;99.90
2565;DHT22;1292;48.020;7.822;2023-08-31T18:55:13;19.60;99.90
2565;DHT22;1292;48.020;7.822;2023-08-31T18:57:41;19.60;99.90
2565;DHT22;1292;48.020;7.822;2023-08-31T19:00:10;19.50;99.90
2565;DHT22;1292;48.020;7.822;2023-08-31T19:02:38;19.50;99.90
2565;DHT22;1292;48.020;7.822;2023-08-31T19:05:06;19.50;99.90
2565;DHT22;1292;48.020;7.822;2023-08-31T19:07:35;19.40;99.90
2565;DHT22;1292;48.020;7.822;2023-08-31T19:10:02;19.40;99.90
2565;DHT22;1292;48.020;7.822;2023-08-31T19:12:30;19.30;99.90
2565;DHT22;1292;48.020;7.822;2023-08-31T19:14:57;19.30;99.90
2565;DHT22;1292;48.020;7.822;2023-08-31T19:17:24;19.30;99.90
2565;DHT22;1292;48.020;7.822;2023-08-31T19:19:51;19.30;99.90
2565;DHT22;1292;48.020;7.822;2023-08-31T19:22:18;19.20;99.90
2565;DHT22;1292;48.020;7.822;2023-08-31T19:24:47;19.20;99.90
2565;DHT22;1292;48.020;7.822;2023-08-31T19:27:14;19.20;99.90
2565;DHT22;1292;48.020;7.822;2023-08-31T19:29:40;19.20;99.90
2565;DHT22;1292;48.020;7.822;2023-08-31T19:32:07;19.20;99.90
2565;DHT22;1292;48.020;7.822;2023-08-31T19:34:34;19.10;99.90
2565;DHT22;1292;48.020;7.822;2023-08-31T19:37:03;19.20;99.90
2565;DHT22;1292;48.020;7.822;2023-08-31T19:39:30;19.10;99.90
2565;DHT22;1292;48.020;7.822;2023-08-31T19:41:59;19.10;99.90
2565;DHT22;1292;48.020;7.822;2023-08-31T19:44:26;19.20;99.90
2565;DHT22;1292;48.020;7.822;2023-08-31T19:46:53;19.10;99.90
2565;DHT22;1292;48.020;7.822;2023-08-31T19:49:19;19.10;99.90
2565;DHT22;1292;48.020;7.822;2023-08-31T19:51:46;19.10;99.90
2565;DHT22;1292;48.020;7.822;2023-08-31T19:54:13;19.10;99.90
2565;DHT22;1292;48.020;7.822;2023-08-31T19:56:41;19.10;99.90
2565;DHT22;1292;48.020;7.822;2023-08-31T19:59:09;19.10;99.90
2565;DHT22;1292;48.020;7.822;2023-08-31T20:01:36;19.10;99.90
2565;DHT22;1292;48.020;7.822;2023-08-31T20:04:07;19.10;99.90
2565;DHT22;1292;48.020;7.822;2023-08-31T20:06:34;19.10;99.90
2565;DHT22;1292;48.020;7.822;2023-08-31T20:09:01;19.20;99.90
2565;DHT22;1292;48.020;7.822;2023-08-31T20:11:29;19.20;99.90
2565;DHT22;1292;48.020;7.822;2023-08-31T20:13:56;19.10;99.90
2565;DHT22;1292;48.020;7.822;2023-08-31T20:16:25;19.20;99.90
2565;DHT22;1292;48.020;7.822;2023-08-31T20:18:52;19.30;99.90
2565;DHT22;1292;48.020;7.822;2023-08-31T20:21:21;19.30;99.90
2565;DHT22;1292;48.020;7.822;2023-08-31T20:23:48;19.20;99.90
2565;DHT22;1292;48.020;7.822;2023-08-31T20:26:15;19.20;99.90
2565;DHT22;1292;48.020;7.822;2023-08-31T20:28:41;19.20;99.90
2565;DHT22;1292;48.020;7.822;2023-08-31T20:31:08;19.20;99.90
2565;DHT22;1292;48.020;7.822;2023-08-31T20:33:37;19.20;99.90
2565;DHT22;1292;48.020;7.822;2023-08-31T20:36:05;19.20;99.90
2565;DHT22;1292;48.020;7.822;2023-08-31T20:38:33;19.20;99.90
2565;DHT22;1292;48.020;7.822;2023-08-31T20:41:01;19.20;99.90
2565;DHT22;1292;48.020;7.822;2023-08-31T20:43:28;19.20;99.90
2565;DHT22;1292;48.020;7.822;2023-08-31T20:46:02;19.20;99.90
2565;DHT22;1292;48.020;7.822;2023-08-31T20:48:31;19.20;99.90
2565;DHT22;1292;48.020;7.822;2023-08-31T20:51:03;19.20;99.90
2565;DHT22;1292;48.020;7.822;2023-08-31T20:53:30;19.10;99.90
2565;DHT22;1292;48.020;7.822;2023-08-31T20:56:07;19.10;99.90
2565;DHT22;1292;48.020;7.822;2023-08-31T20:58:35;19.20;99.90
2565;DHT22;1292;48.020;7.822;2023-08-31T21:01:05;19.20;99.90
2565;DHT22;1292;48.020;7.822;2023-08-31T21:03:33;19.20;99.90
2565;DHT22;1292;48.020;7.822;2023-08-31T21:06:00;19.20;99.90
2565;DHT22;1292;48.020;7.822;2023-08-31T21:08:28;19.20;99.90
2565;DHT22;1292;48.020;7.822;2023-08-31T21:10:55;19.20;99.90
2565;DHT22;1292;48.020;7.822;2023-08-31T21:13:21;19.30;99.90
2565;DHT22;1292;48.020;7.822;2023-08-31T21:15:48;19.30;99.90
2565;DHT22;1292;48.020;7.822;2023-08-31T21:18:15;19.30;99.90
2565;DHT22;1292;48.020;7.822;2023-08-31T21:20:43;19.30;99.90
2565;DHT22;1292;48.020;7.822;2023-08-31T21:23:10;19.40;99.90
2565;DHT22;1292;48.020;7.822;2023-08-31T21:25:40;19.40;99.90
2565;DHT22;1292;48.020;7.822;2023-08-31T21:28:07;19.40;99.90
2565;DHT22;1292;48.020;7.822;2023-08-31T21:30:34;19.50;99.90
2565;DHT22;1292;48.020;7.822;2023-08-31T21:33:02;19.50;99.90
2565;DHT22;1292;48.020;7.822;2023-08-31T21:35:29;19.50;99.90
2565;DHT22;1292;48.020;7.822;2023-08-31T21:37:56;19.50;99.90
